createdAt,value
2019-03-20T00:01:23.728Z,8.50
2019-03-20T00:03:53.314Z,8.60
2019-03-20T00:06:22.926Z,9.00
2019-03-20T00:08:52.660Z,10.33
2019-03-20T00:11:22.294Z,8.50
2019-03-20T00:13:51.912Z,9.00
2019-03-20T00:16:21.418Z,8.13
2019-03-20T00:18:51.209Z,11.00
2019-03-20T00:21:40.131Z,8.93
2019-03-20T00:24:09.750Z,9.90
2019-03-20T00:26:39.483Z,9.83
2019-03-20T00:29:09.013Z,8.30
2019-03-20T00:31:38.643Z,7.80
2019-03-20T00:34:08.290Z,9.00
2019-03-20T00:36:37.867Z,8.47
2019-03-20T00:39:08.375Z,7.50
2019-03-20T00:41:38.111Z,8.97
2019-03-20T00:44:07.879Z,9.33
2019-03-20T00:46:37.823Z,9.07
2019-03-20T00:49:07.446Z,8.90
2019-03-20T00:51:37.351Z,9.00
2019-03-20T00:54:06.995Z,10.40
2019-03-20T00:56:36.567Z,9.33
2019-03-20T00:59:06.066Z,9.40
2019-03-20T01:01:35.653Z,10.17
2019-03-20T01:04:05.464Z,9.10
2019-03-20T01:06:36.835Z,9.70
2019-03-20T01:09:07.183Z,9.87
2019-03-20T01:11:56.114Z,9.50
2019-03-20T01:14:25.692Z,10.20
2019-03-20T01:16:55.307Z,11.30
2019-03-20T01:19:24.958Z,10.80
2019-03-20T01:21:54.709Z,10.07
2019-03-20T01:24:24.275Z,11.80
2019-03-20T01:26:53.937Z,10.00
2019-03-20T01:29:23.548Z,11.10
2019-03-20T01:31:53.171Z,10.93
2019-03-20T01:34:22.907Z,9.67
2019-03-20T01:36:52.674Z,10.90
2019-03-20T01:39:22.387Z,9.93
2019-03-20T01:41:52.130Z,10.50
2019-03-20T01:44:21.773Z,9.33
2019-03-20T01:46:51.509Z,11.27
2019-03-20T01:49:21.169Z,9.10
2019-03-20T01:51:50.901Z,10.17
2019-03-20T01:54:20.482Z,9.33
2019-03-20T01:56:50.075Z,11.60
2019-03-20T01:59:19.656Z,9.37
2019-03-20T02:01:49.199Z,9.30
2019-03-20T02:04:19.716Z,9.33
2019-03-20T02:06:49.337Z,9.17
2019-03-20T02:09:18.997Z,9.67
2019-03-20T02:11:48.711Z,10.10
2019-03-20T02:14:18.294Z,9.80
2019-03-20T02:16:49.458Z,10.87
2019-03-20T02:19:19.028Z,11.00
2019-03-20T02:21:48.635Z,11.43
2019-03-20T02:24:18.160Z,9.50
2019-03-20T02:26:47.824Z,11.40
2019-03-20T02:29:17.479Z,10.43
2019-03-20T02:31:47.272Z,10.97
2019-03-20T02:34:16.977Z,11.20
2019-03-20T02:36:46.493Z,11.60
2019-03-20T02:39:16.063Z,11.10
2019-03-20T02:41:45.759Z,10.60
2019-03-20T02:44:15.370Z,10.93
2019-03-20T02:46:45.030Z,10.90
2019-03-20T02:49:14.666Z,10.30
2019-03-20T02:51:44.311Z,9.83
2019-03-20T02:54:14.168Z,10.63
2019-03-20T02:56:43.755Z,11.13
2019-03-20T02:59:13.442Z,10.00
2019-03-20T03:01:43.019Z,10.13
2019-03-20T03:04:12.910Z,9.50
2019-03-20T03:06:42.480Z,10.93
2019-03-20T03:09:12.292Z,10.27
2019-03-20T03:11:41.946Z,10.77
2019-03-20T03:14:11.560Z,10.17
2019-03-20T03:16:41.187Z,10.43
2019-03-20T03:19:11.120Z,11.17
2019-03-20T03:21:40.908Z,11.70
2019-03-20T03:24:10.544Z,9.67
2019-03-20T03:26:40.271Z,11.00
2019-03-20T03:29:09.955Z,10.00
2019-03-20T03:31:59.002Z,10.13
2019-03-20T03:34:28.568Z,11.23
2019-03-20T03:36:58.179Z,10.40
2019-03-20T03:39:27.839Z,11.10
2019-03-20T03:41:57.481Z,11.30
2019-03-20T03:44:27.083Z,10.70
2019-03-20T03:46:56.899Z,12.50
2019-03-20T03:49:26.590Z,10.30
2019-03-20T03:51:56.253Z,11.47
2019-03-20T03:54:25.907Z,11.73
2019-03-20T03:56:55.575Z,12.07
2019-03-20T03:59:25.293Z,10.40
2019-03-20T04:01:54.940Z,10.13
2019-03-20T04:04:24.522Z,10.83
2019-03-20T04:06:54.151Z,10.57
2019-03-20T04:09:23.841Z,11.17
2019-03-20T04:11:53.502Z,10.50
2019-03-20T04:14:23.503Z,11.33
2019-03-20T04:16:53.205Z,12.20
2019-03-20T04:19:22.811Z,11.53
2019-03-20T04:21:52.628Z,11.83
2019-03-20T04:24:22.325Z,11.13
2019-03-20T04:26:51.879Z,11.70
2019-03-20T04:29:21.517Z,11.33
2019-03-20T04:31:51.252Z,11.60
2019-03-20T04:34:20.997Z,11.80
2019-03-20T04:36:50.565Z,11.70
2019-03-20T04:39:20.257Z,9.37
2019-03-20T04:41:49.930Z,12.17
2019-03-20T04:44:19.564Z,12.37
2019-03-20T04:46:49.148Z,11.33
2019-03-20T04:49:18.794Z,11.33
2019-03-20T04:51:48.498Z,11.70
2019-03-20T04:54:18.024Z,11.57
2019-03-20T04:56:47.603Z,10.83
2019-03-20T04:59:17.290Z,11.27
2019-03-20T05:01:46.858Z,13.43
2019-03-20T05:04:16.546Z,11.50
2019-03-20T05:06:46.246Z,11.57
2019-03-20T05:09:15.959Z,11.90
2019-03-20T05:11:45.576Z,11.87
2019-03-20T05:14:15.521Z,10.80
2019-03-20T05:16:45.177Z,11.37
2019-03-20T05:19:14.734Z,11.77
2019-03-20T05:21:44.522Z,12.33
2019-03-20T05:24:14.512Z,13.47
2019-03-20T05:26:44.149Z,11.20
2019-03-20T05:29:13.818Z,11.77
2019-03-20T05:31:43.481Z,12.40
2019-03-20T05:34:13.151Z,11.83
2019-03-20T05:36:42.806Z,10.87
2019-03-20T05:39:12.407Z,12.53
2019-03-20T05:41:42.159Z,11.07
2019-03-20T05:44:11.726Z,12.33
2019-03-20T05:46:41.322Z,10.93
2019-03-20T05:49:10.935Z,11.50
2019-03-20T05:51:40.608Z,13.13
2019-03-20T05:54:10.255Z,12.33
2019-03-20T05:56:39.805Z,11.63
2019-03-20T05:59:09.532Z,12.53
2019-03-20T06:01:39.235Z,11.87
2019-03-20T06:04:08.896Z,10.87
2019-03-20T06:06:38.435Z,10.97
2019-03-20T06:09:08.011Z,12.07
2019-03-20T06:11:37.565Z,11.20
2019-03-20T06:14:07.149Z,10.90
2019-03-20T06:16:36.763Z,9.93
2019-03-20T06:19:06.512Z,11.57
2019-03-20T06:21:36.152Z,10.53
2019-03-20T06:24:05.868Z,12.83
2019-03-20T06:26:35.542Z,11.27
2019-03-20T06:29:05.342Z,10.23
2019-03-20T06:31:35.061Z,9.27
2019-03-20T06:34:04.898Z,10.50
2019-03-20T06:36:34.607Z,8.73
2019-03-20T06:39:06.979Z,9.57
2019-03-20T06:41:36.671Z,9.27
2019-03-20T06:44:06.362Z,9.30
2019-03-20T06:46:36.099Z,8.60
2019-03-20T06:49:07.864Z,8.03
2019-03-20T06:51:37.183Z,8.40
2019-03-20T06:54:06.863Z,8.60
2019-03-20T06:56:36.361Z,7.70
2019-03-20T06:59:30.057Z,8.90
2019-03-20T07:02:02.699Z,7.80
2019-03-20T07:04:52.683Z,8.27
2019-03-20T07:07:43.462Z,7.67
2019-03-20T07:10:16.646Z,7.70
2019-03-20T07:12:46.212Z,8.23
2019-03-20T07:15:15.949Z,6.60
2019-03-20T07:17:45.924Z,8.23
2019-03-20T07:20:15.968Z,6.90
2019-03-20T07:22:45.551Z,7.37
2019-03-20T07:25:15.235Z,8.13
2019-03-20T07:27:44.947Z,7.70
2019-03-20T07:30:14.627Z,6.70
2019-03-20T07:32:44.136Z,6.77
2019-03-20T07:35:13.935Z,7.77
2019-03-20T07:38:02.875Z,8.20
2019-03-20T07:40:32.548Z,6.63
2019-03-20T07:43:08.668Z,6.43
2019-03-20T07:45:33.270Z,7.27
2019-03-20T07:48:02.882Z,7.20
2019-03-20T07:50:33.238Z,6.90
2019-03-20T07:53:02.935Z,7.03
2019-03-20T07:55:32.630Z,7.13
2019-03-20T07:58:02.279Z,8.20
2019-03-20T08:00:32.128Z,7.00
2019-03-20T08:03:01.795Z,7.03
2019-03-20T08:05:31.524Z,6.60
2019-03-20T08:08:07.106Z,7.47
2019-03-20T08:10:32.435Z,7.37
2019-03-20T08:13:02.297Z,6.10
2019-03-20T08:15:31.971Z,6.57
2019-03-20T08:18:01.642Z,7.07
2019-03-20T08:20:31.946Z,6.70
2019-03-20T08:23:01.654Z,5.60
2019-03-20T08:25:31.336Z,5.83
2019-03-20T08:28:01.071Z,5.43
2019-03-20T08:30:30.766Z,5.93
2019-03-20T08:33:00.429Z,5.73
2019-03-20T08:35:30.010Z,6.13
2019-03-20T08:37:59.581Z,8.03
2019-03-20T08:40:29.150Z,5.43
2019-03-20T08:42:59.645Z,5.07
2019-03-20T08:45:29.295Z,5.60
2019-03-20T08:47:58.994Z,5.13
2019-03-20T08:50:28.734Z,5.57
2019-03-20T08:52:58.287Z,4.47
2019-03-20T08:55:27.928Z,5.00
2019-03-20T08:57:57.649Z,5.47
2019-03-20T09:00:27.291Z,5.00
2019-03-20T09:02:56.968Z,6.40
2019-03-20T09:05:26.602Z,5.33
2019-03-20T09:07:56.491Z,6.30
2019-03-20T09:10:27.194Z,5.40
2019-03-20T09:12:56.814Z,6.60
2019-03-20T09:15:26.378Z,13.80
2019-03-20T09:17:56.024Z,7.80
2019-03-20T09:20:25.675Z,7.27
2019-03-20T09:22:55.479Z,6.70
2019-03-20T09:25:26.051Z,7.10
2019-03-20T09:27:55.794Z,6.73
2019-03-20T09:30:29.956Z,5.93
2019-03-20T09:32:59.598Z,6.57
2019-03-20T09:35:29.137Z,6.60
2019-03-20T09:37:58.773Z,5.87
2019-03-20T09:40:29.198Z,5.57
2019-03-20T09:42:58.851Z,6.27
2019-03-20T09:45:28.588Z,5.80
2019-03-20T09:47:58.707Z,5.63
2019-03-20T09:50:29.163Z,5.70
2019-03-20T09:52:58.675Z,6.03
2019-03-20T09:55:28.408Z,5.30
2019-03-20T09:57:58.078Z,6.17
2019-03-20T10:00:28.791Z,5.50
2019-03-20T10:02:58.506Z,5.17
2019-03-20T10:05:28.426Z,5.73
2019-03-20T10:07:58.348Z,5.80
2019-03-20T10:10:30.132Z,5.63
2019-03-20T10:13:00.268Z,5.30
2019-03-20T10:15:31.086Z,5.37
2019-03-20T10:18:00.998Z,6.17
2019-03-20T10:20:30.777Z,5.60
2019-03-20T10:23:00.294Z,5.77
2019-03-20T10:25:29.965Z,6.50
2019-03-20T10:27:59.569Z,6.30
2019-03-20T10:30:29.940Z,5.53
2019-03-20T10:32:59.546Z,6.90
2019-03-20T10:35:29.518Z,6.93
2019-03-20T10:37:59.267Z,6.40
2019-03-20T10:40:29.350Z,5.70
2019-03-20T10:42:59.509Z,6.17
2019-03-20T10:45:29.415Z,6.60
2019-03-20T10:47:59.358Z,6.17
2019-03-20T10:50:29.864Z,5.93
2019-03-20T10:52:59.779Z,5.60
2019-03-20T10:55:29.710Z,5.63
2019-03-20T10:57:59.495Z,5.90
2019-03-20T11:00:30.475Z,6.43
2019-03-20T11:03:00.429Z,6.77
2019-03-20T11:05:30.872Z,6.27
2019-03-20T11:08:00.989Z,5.63
2019-03-20T11:10:30.816Z,5.50
2019-03-20T11:13:00.559Z,6.20
2019-03-20T11:15:30.203Z,6.10
2019-03-20T11:18:00.040Z,7.37
2019-03-20T11:20:29.960Z,5.33
2019-03-20T11:22:59.592Z,6.80
2019-03-20T11:25:30.273Z,5.30
2019-03-20T11:27:59.914Z,6.07
2019-03-20T11:30:30.671Z,5.57
2019-03-20T11:33:00.463Z,5.90
2019-03-20T11:35:30.053Z,5.57
2019-03-20T11:37:59.910Z,5.50
2019-03-20T11:40:35.019Z,4.67
2019-03-20T11:43:23.883Z,4.07
2019-03-20T11:45:53.816Z,4.57
2019-03-20T11:48:23.510Z,4.07
2019-03-20T11:51:12.597Z,4.43
2019-03-20T11:53:42.371Z,4.50
2019-03-20T11:56:11.913Z,5.43
2019-03-20T11:58:41.725Z,4.27
2019-03-20T12:01:11.419Z,4.17
2019-03-20T12:03:41.198Z,3.23
2019-03-20T12:06:10.770Z,3.30
2019-03-20T12:08:40.387Z,3.87
2019-03-20T12:11:09.895Z,3.40
2019-03-20T12:13:39.574Z,2.43
2019-03-20T12:16:09.196Z,3.07
2019-03-20T12:18:38.794Z,2.10
2019-03-20T12:21:08.508Z,2.37
2019-03-20T12:23:38.162Z,2.90
2019-03-20T12:26:07.994Z,3.40
2019-03-20T12:28:37.590Z,2.97
2019-03-20T12:31:07.312Z,2.50
2019-03-20T12:33:37.318Z,2.53
2019-03-20T12:36:07.058Z,3.30
2019-03-20T12:38:36.896Z,3.00
2019-03-20T12:41:06.811Z,2.70
2019-03-20T12:43:36.459Z,2.17
2019-03-20T12:46:06.139Z,3.07
2019-03-20T12:48:35.779Z,2.00
2019-03-20T12:51:05.678Z,1.90
2019-03-20T12:53:36.306Z,1.60
2019-03-20T12:56:05.948Z,2.40
2019-03-20T12:58:35.516Z,1.57
2019-03-20T13:01:05.862Z,1.80
2019-03-20T13:03:35.556Z,1.90
2019-03-20T13:06:05.240Z,2.03
2019-03-20T13:08:35.106Z,2.33
2019-03-20T13:11:04.797Z,2.20
2019-03-20T13:13:34.413Z,1.87
2019-03-20T13:16:04.216Z,3.77
2019-03-20T13:18:33.930Z,2.90
2019-03-20T13:21:04.053Z,2.00
2019-03-20T13:23:36.023Z,1.80
2019-03-20T13:26:05.813Z,2.10
2019-03-20T13:28:35.398Z,2.30
2019-03-20T13:31:20.137Z,1.87
2019-03-20T13:33:49.896Z,2.23
2019-03-20T13:36:19.635Z,2.30
2019-03-20T13:38:49.299Z,1.77
2019-03-20T13:41:18.926Z,2.47
2019-03-20T13:43:48.522Z,2.00
2019-03-20T13:46:18.135Z,2.20
2019-03-20T13:48:47.738Z,2.23
2019-03-20T13:51:17.479Z,2.30
2019-03-20T13:53:47.164Z,1.80
2019-03-20T13:56:16.778Z,2.03
2019-03-20T13:58:46.351Z,1.90
2019-03-20T14:01:16.059Z,2.53
2019-03-20T14:03:45.721Z,1.73
2019-03-20T14:06:15.554Z,2.60
2019-03-20T14:08:45.272Z,1.80
2019-03-20T14:11:15.048Z,2.57
2019-03-20T14:13:44.759Z,2.07
2019-03-20T14:16:14.404Z,2.47
2019-03-20T14:18:43.951Z,2.20
2019-03-20T14:21:13.691Z,2.50
2019-03-20T14:23:43.375Z,2.33
2019-03-20T14:26:13.042Z,2.93
2019-03-20T14:28:42.741Z,2.93
2019-03-20T14:31:12.526Z,2.50
2019-03-20T14:33:42.202Z,1.90
2019-03-20T14:36:11.948Z,2.77
2019-03-20T14:38:41.641Z,2.20
2019-03-20T14:41:21.146Z,2.07
2019-03-20T14:43:43.061Z,2.87
2019-03-20T14:46:12.783Z,2.63
2019-03-20T14:48:42.642Z,2.13
2019-03-20T14:51:12.434Z,3.23
2019-03-20T14:53:42.458Z,2.10
2019-03-20T14:56:12.298Z,2.90
2019-03-20T14:58:42.237Z,2.90
2019-03-20T15:01:12.320Z,2.33
2019-03-20T15:03:42.446Z,3.00
2019-03-20T15:06:12.155Z,3.50
2019-03-20T15:08:41.983Z,3.63
2019-03-20T15:11:11.779Z,2.57
2019-03-20T15:13:41.456Z,3.30
2019-03-20T15:16:12.917Z,3.00
2019-03-20T15:18:42.738Z,3.10
2019-03-20T15:21:12.539Z,4.90
2019-03-20T15:24:01.823Z,2.80
2019-03-20T15:26:33.991Z,2.60
2019-03-20T15:29:03.587Z,3.03
2019-03-20T15:31:33.220Z,3.07
2019-03-20T15:34:03.198Z,3.83
2019-03-20T15:36:33.020Z,3.60
2019-03-20T15:39:02.953Z,3.47
2019-03-20T15:41:32.671Z,3.60
2019-03-20T15:44:02.906Z,3.63
2019-03-20T15:46:32.846Z,3.73
2019-03-20T15:49:02.831Z,5.30
2019-03-20T15:51:32.886Z,4.13
2019-03-20T15:54:03.143Z,5.40
2019-03-20T15:56:32.883Z,4.00
2019-03-20T15:59:02.701Z,3.70
2019-03-20T16:01:32.458Z,5.30
2019-03-20T16:04:02.206Z,4.57
2019-03-20T16:06:31.907Z,4.37
2019-03-20T16:09:01.835Z,4.90
2019-03-20T16:11:31.853Z,4.17
2019-03-20T16:14:01.963Z,3.77
2019-03-20T16:16:31.702Z,4.40
2019-03-20T16:19:01.418Z,4.73
2019-03-20T16:21:31.355Z,4.30
2019-03-20T16:24:01.015Z,4.17
2019-03-20T16:26:30.902Z,4.53
2019-03-20T16:29:00.917Z,5.33
2019-03-20T16:31:30.757Z,4.63
2019-03-20T16:34:00.461Z,5.03
2019-03-20T16:36:30.205Z,5.07
2019-03-20T16:38:59.946Z,5.03
2019-03-20T16:41:29.624Z,5.70
2019-03-20T16:43:59.413Z,5.33
2019-03-20T16:46:29.213Z,4.73
2019-03-20T16:48:58.976Z,4.10
2019-03-20T16:51:29.217Z,4.70
2019-03-20T16:53:58.915Z,4.90
2019-03-20T16:56:28.543Z,4.10
2019-03-20T16:58:58.336Z,4.27
2019-03-20T17:01:27.983Z,4.93
2019-03-20T17:03:57.831Z,4.97
2019-03-20T17:06:27.527Z,5.40
2019-03-20T17:08:57.049Z,5.03
2019-03-20T17:11:37.905Z,5.10
2019-03-20T17:13:58.119Z,4.10
2019-03-20T17:16:27.824Z,7.23
2019-03-20T17:18:57.404Z,4.50
2019-03-20T17:21:26.970Z,5.10
2019-03-20T17:23:56.535Z,3.80
2019-03-20T17:26:26.355Z,5.40
2019-03-20T17:28:56.079Z,4.03
2019-03-20T17:31:25.807Z,5.63
2019-03-20T17:33:55.847Z,4.87
2019-03-20T17:36:25.444Z,4.53
2019-03-20T17:38:54.972Z,4.53
2019-03-20T17:41:24.772Z,5.00
2019-03-20T17:43:56.992Z,4.97
2019-03-20T17:46:27.819Z,5.30
2019-03-20T17:48:57.913Z,5.07
2019-03-20T17:51:27.707Z,4.50
2019-03-20T17:53:57.467Z,4.07
2019-03-20T17:56:27.360Z,3.87
2019-03-20T17:58:57.014Z,3.00
2019-03-20T18:01:26.711Z,3.20
2019-03-20T18:03:56.416Z,3.20
2019-03-20T18:06:26.155Z,3.03
2019-03-20T18:08:56.105Z,3.20
2019-03-20T18:11:25.782Z,3.17
2019-03-20T18:13:55.563Z,3.10
2019-03-20T18:16:25.212Z,2.93
2019-03-20T18:18:55.015Z,3.87
2019-03-20T18:21:28.264Z,3.43
2019-03-20T18:23:57.395Z,4.53
2019-03-20T18:26:27.070Z,5.93
2019-03-20T18:28:56.836Z,4.17
2019-03-20T18:31:26.483Z,4.80
2019-03-20T18:33:56.192Z,4.23
2019-03-20T18:36:25.894Z,4.13
2019-03-20T18:38:55.420Z,4.60
2019-03-20T18:41:27.958Z,5.17
2019-03-20T18:43:57.807Z,4.77
2019-03-20T18:46:27.483Z,5.27
2019-03-20T18:48:57.111Z,5.37
2019-03-20T18:51:26.982Z,5.10
2019-03-20T18:53:56.595Z,4.33
2019-03-20T18:56:26.174Z,4.53
2019-03-20T18:58:55.979Z,3.80
2019-03-20T19:01:25.622Z,4.37
2019-03-20T19:03:55.271Z,5.30
2019-03-20T19:06:28.164Z,4.53
2019-03-20T19:08:57.937Z,5.00
2019-03-20T19:11:27.773Z,4.77
2019-03-20T19:13:57.552Z,6.57
2019-03-20T19:16:46.602Z,6.07
2019-03-20T19:19:16.346Z,5.00
2019-03-20T19:21:46.228Z,5.10
2019-03-20T19:24:15.976Z,4.70
2019-03-20T19:26:45.830Z,5.80
2019-03-20T19:29:15.694Z,5.60
2019-03-20T19:31:45.519Z,5.37
2019-03-20T19:34:15.425Z,6.50
2019-03-20T19:36:45.454Z,6.40
2019-03-20T19:39:15.263Z,6.23
2019-03-20T19:41:44.949Z,5.43
2019-03-20T19:44:14.905Z,5.43
2019-03-20T19:46:44.563Z,5.10
2019-03-20T19:49:14.397Z,5.03
2019-03-20T19:51:44.449Z,5.20
2019-03-20T19:54:14.100Z,5.67
2019-03-20T19:56:44.085Z,5.10
2019-03-20T19:59:13.711Z,6.30
2019-03-20T20:01:43.475Z,10.23
2019-03-20T20:04:13.282Z,9.23
2019-03-20T20:06:43.298Z,7.30
2019-03-20T20:09:13.134Z,6.13
2019-03-20T20:11:42.929Z,6.40
2019-03-20T20:14:12.791Z,5.33
2019-03-20T20:16:42.551Z,5.90
2019-03-20T20:19:12.390Z,5.03
2019-03-20T20:21:42.156Z,5.33
2019-03-20T20:24:11.922Z,6.13
2019-03-20T20:26:41.763Z,5.93
2019-03-20T20:29:11.686Z,6.10
2019-03-20T20:31:41.561Z,4.80
2019-03-20T20:34:11.364Z,5.67
2019-03-20T20:36:41.181Z,5.80
2019-03-20T20:39:10.941Z,5.73
2019-03-20T20:41:40.772Z,4.60
2019-03-20T20:44:29.826Z,5.27
2019-03-20T20:46:59.589Z,5.60
2019-03-20T20:49:29.407Z,7.70
2019-03-20T20:51:59.256Z,7.17
2019-03-20T20:54:29.235Z,6.87
2019-03-20T20:56:59.016Z,5.67
2019-03-20T20:59:28.611Z,5.97
2019-03-20T21:01:58.238Z,6.83
2019-03-20T21:04:27.939Z,5.00
2019-03-20T21:06:58.012Z,6.40
2019-03-20T21:09:27.757Z,6.90
2019-03-20T21:11:57.593Z,7.93
2019-03-20T21:14:27.296Z,6.23
2019-03-20T21:16:57.057Z,6.90
2019-03-20T21:19:31.807Z,6.33
2019-03-20T21:22:19.811Z,6.47
2019-03-20T21:24:49.560Z,6.33
2019-03-20T21:27:31.242Z,6.63
2019-03-20T21:30:22.102Z,7.33
2019-03-20T21:33:00.821Z,7.87
2019-03-20T21:35:45.337Z,7.10
2019-03-20T21:38:13.863Z,6.60
2019-03-20T21:40:46.689Z,7.97
2019-03-20T21:43:43.765Z,7.63
2019-03-20T21:46:22.023Z,6.60
2019-03-20T21:48:51.972Z,6.90
2019-03-20T21:51:21.660Z,7.03
2019-03-20T21:54:12.300Z,6.63
2019-03-20T21:57:09.231Z,7.00
2019-03-20T21:59:59.957Z,6.50
2019-03-20T22:02:45.529Z,6.30
2019-03-20T22:05:44.992Z,6.70
2019-03-20T22:08:14.695Z,6.13
2019-03-20T22:10:58.373Z,7.20
2019-03-20T22:13:31.510Z,6.07
2019-03-20T22:16:28.530Z,5.90
2019-03-20T22:19:19.041Z,5.93
2019-03-20T22:22:26.299Z,7.80
2019-03-20T22:25:17.042Z,7.13
2019-03-20T22:28:12.251Z,9.70
2019-03-20T22:30:42.008Z,6.67
2019-03-20T22:33:48.030Z,7.40
2019-03-20T22:36:18.084Z,6.40
2019-03-20T22:39:10.683Z,8.33
2019-03-20T22:41:58.199Z,8.07
2019-03-20T22:44:27.935Z,6.03
2019-03-20T22:47:17.376Z,7.63
2019-03-20T22:49:53.064Z,6.13
2019-03-20T22:52:37.580Z,6.47
2019-03-20T22:55:26.815Z,6.90
2019-03-20T22:58:14.735Z,7.30
2019-03-20T23:00:46.768Z,7.10
2019-03-20T23:03:19.687Z,7.80
2019-03-20T23:05:49.797Z,6.77
2019-03-20T23:08:19.612Z,7.43
2019-03-20T23:10:51.436Z,6.80
2019-03-20T23:13:21.278Z,7.00
2019-03-20T23:15:51.356Z,8.13
2019-03-20T23:18:21.030Z,8.73
2019-03-20T23:20:50.649Z,7.90
2019-03-20T23:23:39.660Z,7.03
2019-03-20T23:26:09.391Z,9.00
2019-03-20T23:28:39.942Z,8.40
2019-03-20T23:31:09.610Z,7.60
2019-03-20T23:33:39.625Z,8.40
2019-03-20T23:36:09.523Z,9.67
2019-03-20T23:38:39.367Z,7.30
2019-03-20T23:41:09.145Z,8.10
2019-03-20T23:43:38.799Z,8.63
2019-03-20T23:46:08.373Z,8.37
2019-03-20T23:48:46.527Z,8.17
2019-03-20T23:51:21.902Z,8.80
2019-03-20T23:53:52.711Z,7.30
2019-03-20T23:56:22.863Z,9.23
2019-03-20T23:58:52.636Z,8.20
